sensor_id;sensor_type;location;lat;lon;timestamp;pressure;altitude;pressure_sealevel;temperature;humidity
51289;BME280;37372;52.294;5.152;2022-11-15T00:00:32;100878.03;;;5.13;100.00
51289;BME280;37372;52.294;5.152;2022-11-15T00:02:57;100873.25;;;5.13;100.00
51289;BME280;37372;52.294;5.152;2022-11-15T00:05:23;100870.47;;;5.13;100.00
51289;BME280;37372;52.294;5.152;2022-11-15T00:07:48;100878.38;;;5.11;100.00
51289;BME280;37372;52.294;5.152;2022-11-15T00:10:14;100872.44;;;5.09;100.00
51289;BME280;37372;52.294;5.152;2022-11-15T00:12:39;100870.88;;;5.12;100.00
51289;BME280;37372;52.294;5.152;2022-11-15T00:15:05;100872.09;;;5.14;100.00
51289;BME280;37372;52.294;5.152;2022-11-15T00:17:30;100868.22;;;5.22;100.00
51289;BME280;37372;52.294;5.152;2022-11-15T00:19:56;100857.84;;;5.19;100.00
51289;BME280;37372;52.294;5.152;2022-11-15T00:22:22;100851.53;;;5.22;100.00
51289;BME280;37372;52.294;5.152;2022-11-15T00:24:47;100853.88;;;5.20;100.00
51289;BME280;37372;52.294;5.152;2022-11-15T00:27:12;100857.47;;;5.21;100.00
51289;BME280;37372;52.294;5.152;2022-11-15T00:29:38;100850.69;;;5.18;100.00
51289;BME280;37372;52.294;5.152;2022-11-15T00:32:11;100848.31;;;5.20;100.00
51289;BME280;37372;52.294;5.152;2022-11-15T00:34:36;100848.75;;;5.22;100.00
51289;BME280;37372;52.294;5.152;2022-11-15T00:37:01;100855.53;;;5.25;100.00
51289;BME280;37372;52.294;5.152;2022-11-15T00:39:27;100854.41;;;5.30;100.00
51289;BME280;37372;52.294;5.152;2022-11-15T00:41:52;100867.13;;;5.31;100.00
51289;BME280;37372;52.294;5.152;2022-11-15T00:44:17;100859.22;;;5.33;100.00
51289;BME280;37372;52.294;5.152;2022-11-15T00:46:43;100853.63;;;5.33;100.00
51289;BME280;37372;52.294;5.152;2022-11-15T00:49:08;100855.22;;;5.34;100.00
51289;BME280;37372;52.294;5.152;2022-11-15T00:51:33;100847.66;;;5.31;100.00
51289;BME280;37372;52.294;5.152;2022-11-15T00:53:59;100838.16;;;5.32;100.00
51289;BME280;37372;52.294;5.152;2022-11-15T00:56:24;100823.84;;;5.33;100.00
51289;BME280;37372;52.294;5.152;2022-11-15T00:58:49;100828.63;;;5.36;100.00
51289;BME280;37372;52.294;5.152;2022-11-15T01:01:15;100818.28;;;5.33;100.00
51289;BME280;37372;52.294;5.152;2022-11-15T01:03:41;100826.25;;;5.35;100.00
51289;BME280;37372;52.294;5.152;2022-11-15T01:06:07;100828.69;;;5.40;100.00
51289;BME280;37372;52.294;5.152;2022-11-15T01:08:34;100819.91;;;5.38;100.00
51289;BME280;37372;52.294;5.152;2022-11-15T01:11:04;100819.16;;;5.41;100.00
51289;BME280;37372;52.294;5.152;2022-11-15T01:13:32;100814.78;;;5.40;100.00
51289;BME280;37372;52.294;5.152;2022-11-15T01:15:58;100821.94;;;5.41;100.00
51289;BME280;37372;52.294;5.152;2022-11-15T01:18:23;100814.78;;;5.40;100.00
51289;BME280;37372;52.294;5.152;2022-11-15T01:20:49;100808.03;;;5.41;100.00
51289;BME280;37372;52.294;5.152;2022-11-15T01:23:14;100812.81;;;5.44;100.00
51289;BME280;37372;52.294;5.152;2022-11-15T01:25:39;100816.03;;;5.46;100.00
51289;BME280;37372;52.294;5.152;2022-11-15T01:28:05;100806.09;;;5.45;100.00
51289;BME280;37372;52.294;5.152;2022-11-15T01:30:30;100810.88;;;5.48;100.00
51289;BME280;37372;52.294;5.152;2022-11-15T01:32:55;100818.03;;;5.49;100.00
51289;BME280;37372;52.294;5.152;2022-11-15T01:35:21;100805.75;;;5.50;100.00
51289;BME280;37372;52.294;5.152;2022-11-15T01:37:46;100805.84;;;5.57;100.00
51289;BME280;37372;52.294;5.152;2022-11-15T01:40:12;100809.41;;;5.58;100.00
51289;BME280;37372;52.294;5.152;2022-11-15T01:42:37;100802.69;;;5.62;100.00
51289;BME280;37372;52.294;5.152;2022-11-15T01:45:03;100801.50;;;5.63;100.00
51289;BME280;37372;52.294;5.152;2022-11-15T01:47:36;100793.94;;;5.64;100.00
51289;BME280;37372;52.294;5.152;2022-11-15T01:50:10;100795.56;;;5.65;100.00
51289;BME280;37372;52.294;5.152;2022-11-15T01:52:37;100792.38;;;5.66;100.00
51289;BME280;37372;52.294;5.152;2022-11-15T01:57:38;100782.09;;;5.71;100.00
51289;BME280;37372;52.294;5.152;2022-11-15T02:00:05;100787.25;;;5.72;100.00
51289;BME280;37372;52.294;5.152;2022-11-15T02:02:32;100782.91;;;5.75;100.00
51289;BME280;37372;52.294;5.152;2022-11-15T02:04:57;100782.16;;;5.78;100.00
51289;BME280;37372;52.294;5.152;2022-11-15T02:07:23;100778.97;;;5.79;100.00
51289;BME280;37372;52.294;5.152;2022-11-15T02:09:49;100777.41;;;5.82;100.00
51289;BME280;37372;52.294;5.152;2022-11-15T02:12:19;100772.28;;;5.84;100.00
51289;BME280;37372;52.294;5.152;2022-11-15T02:14:49;100770.31;;;5.88;100.00
51289;BME280;37372;52.294;5.152;2022-11-15T02:26:19;100755.34;;;6.03;100.00
51289;BME280;37372;52.294;5.152;2022-11-15T02:39:35;100737.16;;;6.20;100.00
51289;BME280;37372;52.294;5.152;2022-11-15T02:42:11;100731.63;;;6.24;100.00
51289;BME280;37372;52.294;5.152;2022-11-15T02:44:58;100726.09;;;6.31;100.00
51289;BME280;37372;52.294;5.152;2022-11-15T02:47:30;100723.34;;;6.38;100.00
51289;BME280;37372;52.294;5.152;2022-11-15T02:50:05;100716.59;;;6.39;100.00
51289;BME280;37372;52.294;5.152;2022-11-15T02:52:32;100714.22;;;6.41;100.00
51289;BME280;37372;52.294;5.152;2022-11-15T02:54:59;100711.44;;;6.41;100.00
51289;BME280;37372;52.294;5.152;2022-11-15T02:57:55;100709.44;;;6.45;100.00
51289;BME280;37372;52.294;5.152;2022-11-15T03:00:27;100703.50;;;6.47;100.00
51289;BME280;37372;52.294;5.152;2022-11-15T03:03:30;100705.13;;;6.51;100.00
51289;BME280;37372;52.294;5.152;2022-11-15T03:09:07;100698.00;;;6.65;100.00
51289;BME280;37372;52.294;5.152;2022-11-15T03:11:39;100704.75;;;6.64;100.00
51289;BME280;37372;52.294;5.152;2022-11-15T03:15:01;100703.16;;;6.63;100.00
51289;BME280;37372;52.294;5.152;2022-11-15T03:17:36;100707.94;;;6.66;100.00
51289;BME280;37372;52.294;5.152;2022-11-15T03:20:05;100706.41;;;6.72;100.00
51289;BME280;37372;52.294;5.152;2022-11-15T03:22:38;100707.19;;;6.76;100.00
51289;BME280;37372;52.294;5.152;2022-11-15T03:25:08;100707.22;;;6.80;100.00
51289;BME280;37372;52.294;5.152;2022-11-15T03:27:40;100708.00;;;6.80;100.00
51289;BME280;37372;52.294;5.152;2022-11-15T03:30:08;100710.00;;;6.83;100.00
51289;BME280;37372;52.294;5.152;2022-11-15T03:32:41;100700.06;;;6.86;100.00
51289;BME280;37372;52.294;5.152;2022-11-15T03:35:14;100703.25;;;6.91;100.00
51289;BME280;37372;52.294;5.152;2022-11-15T03:40:27;100696.50;;;6.92;100.00
51289;BME280;37372;52.294;5.152;2022-11-15T03:43:02;100696.88;;;6.94;100.00
51289;BME280;37372;52.294;5.152;2022-11-15T03:45:36;100697.72;;;6.95;100.00
51289;BME280;37372;52.294;5.152;2022-11-15T03:48:13;100706.47;;;6.97;100.00
51289;BME280;37372;52.294;5.152;2022-11-15T03:50:40;100700.88;;;6.97;100.00
51289;BME280;37372;52.294;5.152;2022-11-15T03:53:07;100715.66;;;7.05;100.00
51289;BME280;37372;52.294;5.152;2022-11-15T03:55:33;100699.34;;;7.10;100.00
51289;BME280;37372;52.294;5.152;2022-11-15T03:58:00;100706.91;;;7.10;100.00
51289;BME280;37372;52.294;5.152;2022-11-15T04:00:26;100703.34;;;7.13;100.00
51289;BME280;37372;52.294;5.152;2022-11-15T04:02:52;100699.34;;;7.14;100.00
51289;BME280;37372;52.294;5.152;2022-11-15T04:05:17;100698.56;;;7.21;100.00
51289;BME280;37372;52.294;5.152;2022-11-15T04:07:43;100694.19;;;7.23;100.00
51289;BME280;37372;52.294;5.152;2022-11-15T04:10:09;100686.59;;;7.27;100.00
51289;BME280;37372;52.294;5.152;2022-11-15T04:12:36;100688.59;;;7.37;100.00
51289;BME280;37372;52.294;5.152;2022-11-15T04:15:14;100687.03;;;7.33;100.00
51289;BME280;37372;52.294;5.152;2022-11-15T04:17:48;100685.03;;;7.41;100.00
51289;BME280;37372;52.294;5.152;2022-11-15T04:20:22;100690.63;;;7.41;100.00
51289;BME280;37372;52.294;5.152;2022-11-15T04:23:09;100676.28;;;7.46;100.00
51289;BME280;37372;52.294;5.152;2022-11-15T04:25:55;100678.66;;;7.58;100.00
51289;BME280;37372;52.294;5.152;2022-11-15T04:28:22;100680.25;;;7.66;100.00
51289;BME280;37372;52.294;5.152;2022-11-15T04:30:48;100673.47;;;7.64;100.00
51289;BME280;37372;52.294;5.152;2022-11-15T04:33:13;100667.47;;;7.65;100.00
51289;BME280;37372;52.294;5.152;2022-11-15T04:35:39;100676.25;;;7.67;100.00
51289;BME280;37372;52.294;5.152;2022-11-15T04:38:06;100675.47;;;7.63;100.00
51289;BME280;37372;52.294;5.152;2022-11-15T04:40:32;100671.88;;;7.66;100.00
51289;BME280;37372;52.294;5.152;2022-11-15T04:42:58;100670.28;;;7.69;100.00
51289;BME280;37372;52.294;5.152;2022-11-15T04:45:23;100673.06;;;7.65;100.00
51289;BME280;37372;52.294;5.152;2022-11-15T04:47:48;100668.28;;;7.66;100.00
51289;BME280;37372;52.294;5.152;2022-11-15T04:50:15;100665.09;;;7.67;100.00
51289;BME280;37372;52.294;5.152;2022-11-15T04:52:42;100661.88;;;7.76;100.00
51289;BME280;37372;52.294;5.152;2022-11-15T04:55:09;100661.91;;;7.79;100.00
51289;BME280;37372;52.294;5.152;2022-11-15T04:57:35;100669.09;;;7.84;100.00
51289;BME280;37372;52.294;5.152;2022-11-15T05:00:03;100667.06;;;7.81;100.00
51289;BME280;37372;52.294;5.152;2022-11-15T05:02:29;100665.47;;;7.83;100.00
51289;BME280;37372;52.294;5.152;2022-11-15T05:05:14;100667.47;;;7.79;100.00
51289;BME280;37372;52.294;5.152;2022-11-15T05:07:40;100677.88;;;7.79;100.00
51289;BME280;37372;52.294;5.152;2022-11-15T05:10:05;100681.03;;;7.77;100.00
51289;BME280;37372;52.294;5.152;2022-11-15T05:12:31;100680.25;;;7.80;100.00
51289;BME280;37372;52.294;5.152;2022-11-15T05:14:59;100681.06;;;7.74;100.00
51289;BME280;37372;52.294;5.152;2022-11-15T05:17:24;100682.25;;;7.69;100.00
51289;BME280;37372;52.294;5.152;2022-11-15T05:19:49;100685.03;;;7.73;100.00
51289;BME280;37372;52.294;5.152;2022-11-15T05:22:17;100690.59;;;7.83;100.00
51289;BME280;37372;52.294;5.152;2022-11-15T05:24:42;100696.19;;;7.80;100.00
51289;BME280;37372;52.294;5.152;2022-11-15T05:27:08;100693.03;;;7.81;100.00
51289;BME280;37372;52.294;5.152;2022-11-15T05:29:33;100696.19;;;7.94;100.00
51289;BME280;37372;52.294;5.152;2022-11-15T05:31:59;100695.00;;;7.99;100.00
51289;BME280;37372;52.294;5.152;2022-11-15T05:34:24;100695.78;;;7.99;100.00
51289;BME280;37372;52.294;5.152;2022-11-15T05:36:50;100695.00;;;7.99;100.00
51289;BME280;37372;52.294;5.152;2022-11-15T05:39:16;100693.00;;;7.99;100.00
51289;BME280;37372;52.294;5.152;2022-11-15T05:44:10;100693.78;;;8.07;100.00
51289;BME280;37372;52.294;5.152;2022-11-15T05:46:37;100696.19;;;8.05;100.00
51289;BME280;37372;52.294;5.152;2022-11-15T05:49:05;100692.97;;;8.03;100.00
51289;BME280;37372;52.294;5.152;2022-11-15T05:51:32;100690.19;;;8.03;100.00
51289;BME280;37372;52.294;5.152;2022-11-15T05:53:58;100698.16;;;8.08;100.00
51289;BME280;37372;52.294;5.152;2022-11-15T05:56:25;100692.59;;;8.12;100.00
51289;BME280;37372;52.294;5.152;2022-11-15T05:58:52;100695.38;;;8.12;100.00
51289;BME280;37372;52.294;5.152;2022-11-15T06:01:18;100700.56;;;8.17;100.00
51289;BME280;37372;52.294;5.152;2022-11-15T06:03:44;100696.16;;;8.19;100.00
51289;BME280;37372;52.294;5.152;2022-11-15T06:06:09;100694.13;;;8.23;100.00
51289;BME280;37372;52.294;5.152;2022-11-15T06:08:34;100694.53;;;8.25;100.00
51289;BME280;37372;52.294;5.152;2022-11-15T06:11:06;100700.09;;;8.29;100.00
51289;BME280;37372;52.294;5.152;2022-11-15T06:13:32;100712.09;;;8.30;100.00
51289;BME280;37372;52.294;5.152;2022-11-15T06:15:58;100708.50;;;8.33;100.00
51289;BME280;37372;52.294;5.152;2022-11-15T06:18:23;100708.06;;;8.34;100.00
51289;BME280;37372;52.294;5.152;2022-11-15T06:20:49;100720.88;;;8.42;100.00
51289;BME280;37372;52.294;5.152;2022-11-15T06:23:14;100714.06;;;8.36;100.00
51289;BME280;37372;52.294;5.152;2022-11-15T06:25:40;100712.06;;;8.44;100.00
51289;BME280;37372;52.294;5.152;2022-11-15T06:28:05;100716.91;;;8.40;100.00
51289;BME280;37372;52.294;5.152;2022-11-15T06:30:30;100718.47;;;8.34;100.00
51289;BME280;37372;52.294;5.152;2022-11-15T06:33:00;100714.09;;;8.40;100.00
51289;BME280;37372;52.294;5.152;2022-11-15T06:35:26;100717.66;;;8.37;100.00
51289;BME280;37372;52.294;5.152;2022-11-15T06:37:52;100713.28;;;8.32;100.00
51289;BME280;37372;52.294;5.152;2022-11-15T06:40:17;100724.06;;;8.34;100.00
51289;BME280;37372;52.294;5.152;2022-11-15T06:42:43;100724.88;;;8.31;100.00
51289;BME280;37372;52.294;5.152;2022-11-15T06:45:08;100729.66;;;8.34;100.00
51289;BME280;37372;52.294;5.152;2022-11-15T06:47:34;100728.06;;;8.33;100.00
51289;BME280;37372;52.294;5.152;2022-11-15T06:49:59;100732.03;;;8.32;100.00
51289;BME280;37372;52.294;5.152;2022-11-15T06:52:24;100739.22;;;8.29;100.00
51289;BME280;37372;52.294;5.152;2022-11-15T06:54:50;100736.03;;;8.31;100.00
51289;BME280;37372;52.294;5.152;2022-11-15T06:57:15;100734.44;;;8.33;100.00
51289;BME280;37372;52.294;5.152;2022-11-15T06:59:40;100734.03;;;8.42;100.00
51289;BME280;37372;52.294;5.152;2022-11-15T07:02:10;100736.03;;;8.38;100.00
51289;BME280;37372;52.294;5.152;2022-11-15T07:04:36;100724.84;;;8.38;100.00
51289;BME280;37372;52.294;5.152;2022-11-15T07:07:01;100730.88;;;8.40;100.00
51289;BME280;37372;52.294;5.152;2022-11-15T07:09:27;100739.63;;;8.35;100.00
51289;BME280;37372;52.294;5.152;2022-11-15T07:11:52;100735.63;;;8.36;100.00
51289;BME280;37372;52.294;5.152;2022-11-15T07:14:17;100738.03;;;8.34;100.00
51289;BME280;37372;52.294;5.152;2022-11-15T07:16:43;100740.41;;;8.39;100.00
51289;BME280;37372;52.294;5.152;2022-11-15T07:19:09;100746.41;;;8.37;100.00
51289;BME280;37372;52.294;5.152;2022-11-15T07:21:34;100740.00;;;8.37;100.00
51289;BME280;37372;52.294;5.152;2022-11-15T07:23:59;100744.84;;;8.40;100.00
51289;BME280;37372;52.294;5.152;2022-11-15T07:26:25;100745.63;;;8.33;100.00
51289;BME280;37372;52.294;5.152;2022-11-15T07:28:50;100748.81;;;8.32;100.00
51289;BME280;37372;52.294;5.152;2022-11-15T07:31:15;100747.63;;;8.33;100.00
51289;BME280;37372;52.294;5.152;2022-11-15T07:33:41;100748.03;;;8.27;100.00
51289;BME280;37372;52.294;5.152;2022-11-15T07:36:06;100752.00;;;8.26;100.00
51289;BME280;37372;52.294;5.152;2022-11-15T07:38:33;100752.81;;;8.23;100.00
51289;BME280;37372;52.294;5.152;2022-11-15T07:41:01;100746.44;;;8.23;100.00
51289;BME280;37372;52.294;5.152;2022-11-15T07:43:27;100738.84;;;8.16;100.00
51289;BME280;37372;52.294;5.152;2022-11-15T07:45:53;100738.88;;;8.09;100.00
51289;BME280;37372;52.294;5.152;2022-11-15T07:48:19;100737.28;;;8.08;100.00
51289;BME280;37372;52.294;5.152;2022-11-15T07:50:44;100738.47;;;8.14;100.00
51289;BME280;37372;52.294;5.152;2022-11-15T07:53:10;100734.50;;;8.12;100.00
51289;BME280;37372;52.294;5.152;2022-11-15T07:55:36;100740.88;;;8.12;100.00
51289;BME280;37372;52.294;5.152;2022-11-15T07:58:09;100736.88;;;8.13;100.00
51289;BME280;37372;52.294;5.152;2022-11-15T08:00:35;100746.47;;;8.19;100.00
51289;BME280;37372;52.294;5.152;2022-11-15T08:03:12;100741.66;;;8.20;100.00
51289;BME280;37372;52.294;5.152;2022-11-15T08:05:38;100734.88;;;8.17;100.00
51289;BME280;37372;52.294;5.152;2022-11-15T08:08:04;100730.06;;;8.25;100.00
51289;BME280;37372;52.294;5.152;2022-11-15T08:10:30;100730.06;;;8.21;100.00
51289;BME280;37372;52.294;5.152;2022-11-15T08:13:04;100735.28;;;8.16;100.00
51289;BME280;37372;52.294;5.152;2022-11-15T08:15:30;100726.47;;;8.14;100.00
51289;BME280;37372;52.294;5.152;2022-11-15T08:18:05;100733.69;;;8.15;100.00
51289;BME280;37372;52.294;5.152;2022-11-15T08:20:31;100738.84;;;8.16;100.00
51289;BME280;37372;52.294;5.152;2022-11-15T08:23:02;100733.28;;;8.20;100.00
51289;BME280;37372;52.294;5.152;2022-11-15T08:25:30;100736.88;;;8.20;100.00
51289;BME280;37372;52.294;5.152;2022-11-15T08:27:58;100732.06;;;8.21;100.00
51289;BME280;37372;52.294;5.152;2022-11-15T08:30:25;100716.50;;;8.23;100.00
51289;BME280;37372;52.294;5.152;2022-11-15T08:32:51;100714.50;;;8.20;100.00
51289;BME280;37372;52.294;5.152;2022-11-15T08:35:18;100704.91;;;8.21;100.00
51289;BME280;37372;52.294;5.152;2022-11-15T08:37:43;100715.31;;;8.24;100.00
51289;BME280;37372;52.294;5.152;2022-11-15T08:40:09;100705.69;;;8.29;100.00
51289;BME280;37372;52.294;5.152;2022-11-15T08:42:35;100704.91;;;8.32;100.00
51289;BME280;37372;52.294;5.152;2022-11-15T08:45:00;100700.09;;;8.36;100.00
51289;BME280;37372;52.294;5.152;2022-11-15T08:47:26;100704.06;;;8.39;100.00
51289;BME280;37372;52.294;5.152;2022-11-15T08:49:51;100698.50;;;8.46;100.00
51289;BME280;37372;52.294;5.152;2022-11-15T08:52:17;100696.50;;;8.46;100.00
51289;BME280;37372;52.294;5.152;2022-11-15T08:54:42;100688.91;;;8.51;100.00
51289;BME280;37372;52.294;5.152;2022-11-15T08:57:07;100699.66;;;8.52;100.00
51289;BME280;37372;52.294;5.152;2022-11-15T08:59:34;100693.66;;;8.57;100.00
51289;BME280;37372;52.294;5.152;2022-11-15T09:02:00;100689.69;;;8.58;100.00
51289;BME280;37372;52.294;5.152;2022-11-15T09:04:25;100690.03;;;8.64;100.00
51289;BME280;37372;52.294;5.152;2022-11-15T09:06:51;100689.66;;;8.65;100.00
51289;BME280;37372;52.294;5.152;2022-11-15T09:09:16;100692.78;;;8.75;100.00
51289;BME280;37372;52.294;5.152;2022-11-15T09:11:41;100692.81;;;8.67;100.00
51289;BME280;37372;52.294;5.152;2022-11-15T09:14:07;100688.84;;;8.68;100.00
51289;BME280;37372;52.294;5.152;2022-11-15T09:16:32;100692.78;;;8.75;100.00
51289;BME280;37372;52.294;5.152;2022-11-15T09:18:57;100686.38;;;8.81;100.00
51289;BME280;37372;52.294;5.152;2022-11-15T09:21:23;100701.56;;;8.77;100.00
51289;BME280;37372;52.294;5.152;2022-11-15T09:23:52;100699.19;;;8.79;100.00
51289;BME280;37372;52.294;5.152;2022-11-15T09:26:18;100695.94;;;8.91;100.00
51289;BME280;37372;52.294;5.152;2022-11-15T09:28:43;100683.88;;;9.01;100.00
51289;BME280;37372;52.294;5.152;2022-11-15T09:31:09;100678.28;;;9.01;100.00
51289;BME280;37372;52.294;5.152;2022-11-15T09:33:35;100672.56;;;9.16;100.00
51289;BME280;37372;52.294;5.152;2022-11-15T09:36:05;100671.78;;;9.19;100.00
51289;BME280;37372;52.294;5.152;2022-11-15T09:38:32;100672.53;;;9.23;100.00
51289;BME280;37372;52.294;5.152;2022-11-15T09:41:18;100681.28;;;9.28;100.00
51289;BME280;37372;52.294;5.152;2022-11-15T09:49:23;100669.66;;;9.37;100.00
51289;BME280;37372;52.294;5.152;2022-11-15T09:51:50;100670.81;;;9.40;100.00
51289;BME280;37372;52.294;5.152;2022-11-15T09:54:25;100664.41;;;9.43;100.00
51289;BME280;37372;52.294;5.152;2022-11-15T09:56:52;100667.97;;;9.47;100.00
51289;BME280;37372;52.294;5.152;2022-11-15T09:59:53;100673.25;;;9.38;100.00
51289;BME280;37372;52.294;5.152;2022-11-15T10:05:10;100661.91;;;9.55;100.00
51289;BME280;37372;52.294;5.152;2022-11-15T10:08:02;100677.13;;;9.51;100.00
51289;BME280;37372;52.294;5.152;2022-11-15T10:10:41;100671.97;;;9.49;100.00
51289;BME280;37372;52.294;5.152;2022-11-15T10:13:20;100676.34;;;9.50;100.00
51289;BME280;37372;52.294;5.152;2022-11-15T10:15:48;100669.06;;;9.56;100.00
51289;BME280;37372;52.294;5.152;2022-11-15T10:18:16;100655.41;;;9.66;100.00
51289;BME280;37372;52.294;5.152;2022-11-15T10:20:56;100669.06;;;9.56;100.00
51289;BME280;37372;52.294;5.152;2022-11-15T10:23:23;100659.50;;;9.57;100.00
51289;BME280;37372;52.294;5.152;2022-11-15T10:25:54;100655.91;;;9.53;100.00
51289;BME280;37372;52.294;5.152;2022-11-15T10:28:25;100653.94;;;9.50;100.00
51289;BME280;37372;52.294;5.152;2022-11-15T10:30:54;100653.97;;;9.47;100.00
51289;BME280;37372;52.294;5.152;2022-11-15T10:33:32;100633.09;;;9.55;100.00
51289;BME280;37372;52.294;5.152;2022-11-15T10:41:20;100619.16;;;9.48;100.00
51289;BME280;37372;52.294;5.152;2022-11-15T10:46:26;100609.13;;;9.50;100.00
51289;BME280;37372;52.294;5.152;2022-11-15T10:48:51;100601.19;;;9.45;100.00
51289;BME280;37372;52.294;5.152;2022-11-15T10:54:11;100594.75;;;9.48;100.00
51289;BME280;37372;52.294;5.152;2022-11-15T10:56:39;100591.44;;;9.64;100.00
51289;BME280;37372;52.294;5.152;2022-11-15T10:59:12;100588.97;;;9.66;100.00
51289;BME280;37372;52.294;5.152;2022-11-15T11:01:45;100599.00;;;9.64;100.00
51289;BME280;37372;52.294;5.152;2022-11-15T11:04:11;100599.44;;;9.62;100.00
51289;BME280;37372;52.294;5.152;2022-11-15T11:06:58;100594.66;;;9.59;100.00
51289;BME280;37372;52.294;5.152;2022-11-15T11:09:27;100587.00;;;9.63;100.00
51289;BME280;37372;52.294;5.152;2022-11-15T11:11:54;100584.19;;;9.67;100.00
51289;BME280;37372;52.294;5.152;2022-11-15T11:14:29;100584.91;;;9.74;100.00
51289;BME280;37372;52.294;5.152;2022-11-15T11:22:22;100575.94;;;9.90;100.00
51289;BME280;37372;52.294;5.152;2022-11-15T11:27:57;100581.53;;;9.90;100.00
51289;BME280;37372;52.294;5.152;2022-11-15T11:33:18;100573.53;;;9.89;100.00
51289;BME280;37372;52.294;5.152;2022-11-15T11:35:55;100579.94;;;9.89;100.00
51289;BME280;37372;52.294;5.152;2022-11-15T11:39:03;100576.00;;;9.83;100.00
51289;BME280;37372;52.294;5.152;2022-11-15T11:44:32;100573.63;;;9.82;100.00
51289;BME280;37372;52.294;5.152;2022-11-15T11:49:34;100559.28;;;9.76;100.00
51289;BME280;37372;52.294;5.152;2022-11-15T11:52:08;100551.19;;;9.82;100.00
51289;BME280;37372;52.294;5.152;2022-11-15T11:54:54;100550.34;;;9.88;100.00
51289;BME280;37372;52.294;5.152;2022-11-15T11:57:38;100552.72;;;9.90;100.00
51289;BME280;37372;52.294;5.152;2022-11-15T12:02:47;100520.22;;;9.96;100.00
51289;BME280;37372;52.294;5.152;2022-11-15T12:05:27;100523.69;;;10.07;100.00
51289;BME280;37372;52.294;5.152;2022-11-15T12:08:07;100518.91;;;10.04;100.00
51289;BME280;37372;52.294;5.152;2022-11-15T12:10:37;100514.53;;;10.03;100.00
51289;BME280;37372;52.294;5.152;2022-11-15T12:13:19;100512.06;;;10.09;100.00
51289;BME280;37372;52.294;5.152;2022-11-15T12:15:59;100499.69;;;10.06;100.00
51289;BME280;37372;52.294;5.152;2022-11-15T12:18:28;100496.47;;;10.08;100.00
51289;BME280;37372;52.294;5.152;2022-11-15T12:21:00;100498.81;;;10.13;100.00
51289;BME280;37372;52.294;5.152;2022-11-15T12:23:38;100487.59;;;10.13;100.00
51289;BME280;37372;52.294;5.152;2022-11-15T12:28:39;100484.34;;;10.14;100.00
51289;BME280;37372;52.294;5.152;2022-11-15T12:31:12;100473.22;;;10.11;100.00
51289;BME280;37372;52.294;5.152;2022-11-15T12:33:43;100473.63;;;10.09;100.00
51289;BME280;37372;52.294;5.152;2022-11-15T12:39:00;100477.22;;;10.10;100.00
51289;BME280;37372;52.294;5.152;2022-11-15T12:41:29;100468.31;;;10.15;100.00
51289;BME280;37372;52.294;5.152;2022-11-15T12:43:56;100458.72;;;10.16;100.00
51289;BME280;37372;52.294;5.152;2022-11-15T12:46:58;100456.38;;;10.11;100.00
51289;BME280;37372;52.294;5.152;2022-11-15T13:00:00;100423.47;;;10.15;100.00
51289;BME280;37372;52.294;5.152;2022-11-15T13:02:39;100427.03;;;10.19;100.00
51289;BME280;37372;52.294;5.152;2022-11-15T13:15:52;100414.59;;;10.51;100.00
51289;BME280;37372;52.294;5.152;2022-11-15T13:18:34;100403.19;;;10.61;100.00
51289;BME280;37372;52.294;5.152;2022-11-15T13:21:00;100408.72;;;10.65;100.00
51289;BME280;37372;52.294;5.152;2022-11-15T13:23:27;100400.69;;;10.67;98.62
51289;BME280;37372;52.294;5.152;2022-11-15T13:26:05;100389.09;;;10.65;99.62
51289;BME280;37372;52.294;5.152;2022-11-15T13:28:37;100388.22;;;10.68;98.43
51289;BME280;37372;52.294;5.152;2022-11-15T13:31:24;100376.28;;;10.64;98.49
51289;BME280;37372;52.294;5.152;2022-11-15T13:33:50;100386.78;;;10.60;97.55
51289;BME280;37372;52.294;5.152;2022-11-15T13:36:25;100375.56;;;10.60;98.13
51289;BME280;37372;52.294;5.152;2022-11-15T13:39:04;100368.06;;;10.53;98.97
51289;BME280;37372;52.294;5.152;2022-11-15T13:41:32;100378.13;;;10.51;97.93
51289;BME280;37372;52.294;5.152;2022-11-15T13:43:59;100362.88;;;10.52;96.89
51289;BME280;37372;52.294;5.152;2022-11-15T13:46:29;100358.13;;;10.49;97.97
51289;BME280;37372;52.294;5.152;2022-11-15T13:49:08;100369.22;;;10.56;97.40
51289;BME280;37372;52.294;5.152;2022-11-15T13:51:44;100353.41;;;10.42;98.63
51289;BME280;37372;52.294;5.152;2022-11-15T13:56:38;100347.22;;;10.27;100.00
51289;BME280;37372;52.294;5.152;2022-11-15T13:59:13;100348.00;;;10.31;99.09
51289;BME280;37372;52.294;5.152;2022-11-15T14:01:41;100344.81;;;10.29;98.79
51289;BME280;37372;52.294;5.152;2022-11-15T14:04:11;100338.44;;;10.25;99.57
51289;BME280;37372;52.294;5.152;2022-11-15T14:06:45;100339.28;;;10.22;99.86
51289;BME280;37372;52.294;5.152;2022-11-15T14:09:39;100334.91;;;10.21;100.00
51289;BME280;37372;52.294;5.152;2022-11-15T14:12:50;100331.97;;;10.05;100.00
51289;BME280;37372;52.294;5.152;2022-11-15T14:15:35;100325.25;;;9.98;100.00
51289;BME280;37372;52.294;5.152;2022-11-15T14:18:03;100330.13;;;9.94;100.00
51289;BME280;37372;52.294;5.152;2022-11-15T14:20:33;100322.03;;;10.00;100.00
51289;BME280;37372;52.294;5.152;2022-11-15T14:23:02;100317.63;;;9.99;100.00
51289;BME280;37372;52.294;5.152;2022-11-15T14:25:29;100316.78;;;10.02;100.00
51289;BME280;37372;52.294;5.152;2022-11-15T14:30:44;100303.09;;;10.08;100.00
51289;BME280;37372;52.294;5.152;2022-11-15T14:33:20;100296.38;;;10.02;100.00
51289;BME280;37372;52.294;5.152;2022-11-15T14:35:46;100294.44;;;9.98;100.00
51289;BME280;37372;52.294;5.152;2022-11-15T14:38:11;100288.47;;;9.96;100.00
51289;BME280;37372;52.294;5.152;2022-11-15T14:40:36;100290.06;;;9.97;100.00
51289;BME280;37372;52.294;5.152;2022-11-15T14:43:02;100286.03;;;9.98;100.00